Terminal Aerodrome Forecast
Issued by NWS Rapid City, SD

Home | Current Version | Previous Version | Text Only | Print | Product List | Glossary Off
Versions: 1 2 3 4 5 6 7 8 9 10 11 12 13 14 15 16

000
FTUS43 KUNR 311120
TAFRAP
TAF
KRAP 311120Z 3112/0112 14009KT P6SM BKN120
     FM311600 04009KT P6SM SCT050 BKN150
     FM010200 13005KT P6SM BKN150=

USA.gov is the U.S. government's official web portal to all federal, state and local government web resources and services.